sensor_id;sensor_type;location;lat;lon;timestamp;temperature;humidity
52765;DHT22;38650;44.536;18.664;2022-12-29T00:01:31;6.70;99.90
52765;DHT22;38650;44.536;18.664;2022-12-29T00:03:57;6.70;99.90
52765;DHT22;38650;44.536;18.664;2022-12-29T00:06:23;6.70;99.90
52765;DHT22;38650;44.536;18.664;2022-12-29T00:08:49;6.70;99.90
52765;DHT22;38650;44.536;18.664;2022-12-29T00:11:16;6.60;99.90
52765;DHT22;38650;44.536;18.664;2022-12-29T00:13:43;6.60;99.90
52765;DHT22;38650;44.536;18.664;2022-12-29T00:16:28;6.60;99.90
52765;DHT22;38650;44.536;18.664;2022-12-29T00:18:54;6.70;99.90
52765;DHT22;38650;44.536;18.664;2022-12-29T00:21:21;6.60;99.90
52765;DHT22;38650;44.536;18.664;2022-12-29T00:24:06;6.60;99.90
52765;DHT22;38650;44.536;18.664;2022-12-29T00:29:42;6.70;99.90
52765;DHT22;38650;44.536;18.664;2022-12-29T00:32:26;6.70;99.90
52765;DHT22;38650;44.536;18.664;2022-12-29T00:35:12;6.70;99.90
52765;DHT22;38650;44.536;18.664;2022-12-29T00:37:46;6.60;99.90
52765;DHT22;38650;44.536;18.664;2022-12-29T00:40:32;6.50;99.90
52765;DHT22;38650;44.536;18.664;2022-12-29T00:43:16;6.50;99.90
52765;DHT22;38650;44.536;18.664;2022-12-29T00:46:00;6.50;99.90
52765;DHT22;38650;44.536;18.664;2022-12-29T00:48:26;6.50;99.90
52765;DHT22;38650;44.536;18.664;2022-12-29T00:51:10;6.60;99.90
52765;DHT22;38650;44.536;18.664;2022-12-29T00:53:35;6.60;99.90
52765;DHT22;38650;44.536;18.664;2022-12-29T00:56:01;6.50;99.90
52765;DHT22;38650;44.536;18.664;2022-12-29T00:58:30;6.40;99.90
52765;DHT22;38650;44.536;18.664;2022-12-29T01:01:07;6.30;99.90
52765;DHT22;38650;44.536;18.664;2022-12-29T01:03:34;6.30;99.90
52765;DHT22;38650;44.536;18.664;2022-12-29T01:06:01;6.30;99.90
52765;DHT22;38650;44.536;18.664;2022-12-29T01:08:30;6.20;99.90
52765;DHT22;38650;44.536;18.664;2022-12-29T01:11:05;6.20;99.90
52765;DHT22;38650;44.536;18.664;2022-12-29T01:13:31;6.20;99.90
52765;DHT22;38650;44.536;18.664;2022-12-29T01:15:57;6.20;99.90
52765;DHT22;38650;44.536;18.664;2022-12-29T01:18:24;6.10;99.90
52765;DHT22;38650;44.536;18.664;2022-12-29T01:20:50;6.10;99.90
52765;DHT22;38650;44.536;18.664;2022-12-29T01:23:16;6.10;99.90
52765;DHT22;38650;44.536;18.664;2022-12-29T01:25:42;6.10;99.90
52765;DHT22;38650;44.536;18.664;2022-12-29T01:28:07;6.10;99.90
52765;DHT22;38650;44.536;18.664;2022-12-29T01:30:36;6.10;99.90
52765;DHT22;38650;44.536;18.664;2022-12-29T01:33:02;6.10;99.90
52765;DHT22;38650;44.536;18.664;2022-12-29T01:35:28;6.10;99.90
52765;DHT22;38650;44.536;18.664;2022-12-29T01:37:54;6.10;99.90
52765;DHT22;38650;44.536;18.664;2022-12-29T01:40:20;5.90;99.90
52765;DHT22;38650;44.536;18.664;2022-12-29T01:42:45;5.80;99.90
52765;DHT22;38650;44.536;18.664;2022-12-29T01:45:13;5.80;99.90
52765;DHT22;38650;44.536;18.664;2022-12-29T01:47:41;5.90;99.90
52765;DHT22;38650;44.536;18.664;2022-12-29T01:50:32;5.90;99.90
52765;DHT22;38650;44.536;18.664;2022-12-29T01:53:04;5.90;99.90
52765;DHT22;38650;44.536;18.664;2022-12-29T01:55:36;5.90;99.90
52765;DHT22;38650;44.536;18.664;2022-12-29T01:58:04;5.80;99.90
52765;DHT22;38650;44.536;18.664;2022-12-29T02:00:31;5.80;99.90
52765;DHT22;38650;44.536;18.664;2022-12-29T02:02:56;5.80;99.90
52765;DHT22;38650;44.536;18.664;2022-12-29T02:07:51;5.80;99.90
52765;DHT22;38650;44.536;18.664;2022-12-29T02:10:23;5.80;99.90
52765;DHT22;38650;44.536;18.664;2022-12-29T02:12:50;5.80;99.90
52765;DHT22;38650;44.536;18.664;2022-12-29T02:15:16;5.70;99.90
52765;DHT22;38650;44.536;18.664;2022-12-29T02:18:04;5.60;99.90
52765;DHT22;38650;44.536;18.664;2022-12-29T02:21:12;5.40;99.90
52765;DHT22;38650;44.536;18.664;2022-12-29T02:31:46;5.20;99.90
52765;DHT22;38650;44.536;18.664;2022-12-29T02:37:25;5.30;99.90
52765;DHT22;38650;44.536;18.664;2022-12-29T02:40:08;5.20;99.90
52765;DHT22;38650;44.536;18.664;2022-12-29T02:45:32;5.20;99.90
52765;DHT22;38650;44.536;18.664;2022-12-29T02:50:35;5.00;99.90
52765;DHT22;38650;44.536;18.664;2022-12-29T02:53:05;5.00;99.90
52765;DHT22;38650;44.536;18.664;2022-12-29T02:55:32;5.10;99.90
52765;DHT22;38650;44.536;18.664;2022-12-29T02:58:20;5.00;99.90
52765;DHT22;38650;44.536;18.664;2022-12-29T03:15:02;5.10;99.90
52765;DHT22;38650;44.536;18.664;2022-12-29T03:18:05;5.10;99.90
52765;DHT22;38650;44.536;18.664;2022-12-29T03:20:51;5.10;99.90
52765;DHT22;38650;44.536;18.664;2022-12-29T03:23:19;5.10;99.90
52765;DHT22;38650;44.536;18.664;2022-12-29T03:25:52;5.10;99.90
52765;DHT22;38650;44.536;18.664;2022-12-29T03:28:44;5.10;99.90
52765;DHT22;38650;44.536;18.664;2022-12-29T03:31:12;5.00;99.90
52765;DHT22;38650;44.536;18.664;2022-12-29T03:33:39;5.10;99.90
52765;DHT22;38650;44.536;18.664;2022-12-29T03:36:11;5.10;99.90
52765;DHT22;38650;44.536;18.664;2022-12-29T03:38:52;5.00;99.90
52765;DHT22;38650;44.536;18.664;2022-12-29T03:41:27;4.90;99.90
52765;DHT22;38650;44.536;18.664;2022-12-29T03:43:54;4.90;99.90
52765;DHT22;38650;44.536;18.664;2022-12-29T03:46:19;4.90;99.90
52765;DHT22;38650;44.536;18.664;2022-12-29T03:48:45;5.00;99.90
52765;DHT22;38650;44.536;18.664;2022-12-29T03:51:11;5.10;99.90
52765;DHT22;38650;44.536;18.664;2022-12-29T03:53:36;5.10;99.90
52765;DHT22;38650;44.536;18.664;2022-12-29T03:56:02;5.10;99.90
52765;DHT22;38650;44.536;18.664;2022-12-29T03:58:28;5.10;99.90
52765;DHT22;38650;44.536;18.664;2022-12-29T04:00:54;5.10;99.90
52765;DHT22;38650;44.536;18.664;2022-12-29T04:03:19;5.10;99.90
52765;DHT22;38650;44.536;18.664;2022-12-29T04:05:45;5.10;99.90
52765;DHT22;38650;44.536;18.664;2022-12-29T04:08:11;5.10;99.90
52765;DHT22;38650;44.536;18.664;2022-12-29T04:10:36;5.10;99.90
52765;DHT22;38650;44.536;18.664;2022-12-29T04:13:02;5.10;99.90
52765;DHT22;38650;44.536;18.664;2022-12-29T04:15:27;5.10;99.90
52765;DHT22;38650;44.536;18.664;2022-12-29T04:17:53;5.20;99.90
52765;DHT22;38650;44.536;18.664;2022-12-29T04:20:19;5.20;99.90
52765;DHT22;38650;44.536;18.664;2022-12-29T04:23:04;5.10;99.90
52765;DHT22;38650;44.536;18.664;2022-12-29T04:25:31;5.10;99.90
52765;DHT22;38650;44.536;18.664;2022-12-29T04:27:57;5.10;99.90
52765;DHT22;38650;44.536;18.664;2022-12-29T04:30:23;5.00;99.90
52765;DHT22;38650;44.536;18.664;2022-12-29T04:32:49;5.10;99.90
52765;DHT22;38650;44.536;18.664;2022-12-29T04:35:15;5.10;99.90
52765;DHT22;38650;44.536;18.664;2022-12-29T04:37:40;5.20;99.90
52765;DHT22;38650;44.536;18.664;2022-12-29T04:40:07;5.20;99.90
52765;DHT22;38650;44.536;18.664;2022-12-29T04:42:33;5.30;99.90
52765;DHT22;38650;44.536;18.664;2022-12-29T04:44:58;5.30;99.90
52765;DHT22;38650;44.536;18.664;2022-12-29T04:47:24;5.30;99.90
52765;DHT22;38650;44.536;18.664;2022-12-29T04:49:50;5.30;99.90
52765;DHT22;38650;44.536;18.664;2022-12-29T04:52:15;5.30;99.90
52765;DHT22;38650;44.536;18.664;2022-12-29T04:54:41;5.30;99.90
52765;DHT22;38650;44.536;18.664;2022-12-29T04:57:07;5.40;99.90
52765;DHT22;38650;44.536;18.664;2022-12-29T04:59:32;5.40;99.90
52765;DHT22;38650;44.536;18.664;2022-12-29T05:01:58;5.50;99.90
52765;DHT22;38650;44.536;18.664;2022-12-29T05:04:24;5.40;99.90
52765;DHT22;38650;44.536;18.664;2022-12-29T05:06:50;5.40;99.90
52765;DHT22;38650;44.536;18.664;2022-12-29T05:09:15;5.40;99.90
52765;DHT22;38650;44.536;18.664;2022-12-29T05:11:41;5.50;99.90
52765;DHT22;38650;44.536;18.664;2022-12-29T05:14:07;5.50;99.90
52765;DHT22;38650;44.536;18.664;2022-12-29T05:16:33;5.50;99.90
52765;DHT22;38650;44.536;18.664;2022-12-29T05:18:58;5.50;99.90
52765;DHT22;38650;44.536;18.664;2022-12-29T05:21:24;5.50;99.90
52765;DHT22;38650;44.536;18.664;2022-12-29T05:23:50;5.50;99.90
52765;DHT22;38650;44.536;18.664;2022-12-29T05:26:16;5.50;99.90
52765;DHT22;38650;44.536;18.664;2022-12-29T05:28:42;5.60;99.90
52765;DHT22;38650;44.536;18.664;2022-12-29T05:31:07;5.60;99.90
52765;DHT22;38650;44.536;18.664;2022-12-29T05:33:33;5.50;99.90
52765;DHT22;38650;44.536;18.664;2022-12-29T05:36:06;5.50;99.90
52765;DHT22;38650;44.536;18.664;2022-12-29T05:38:32;5.50;99.90
52765;DHT22;38650;44.536;18.664;2022-12-29T05:40:58;5.50;99.90
52765;DHT22;38650;44.536;18.664;2022-12-29T05:43:24;5.60;99.90
52765;DHT22;38650;44.536;18.664;2022-12-29T05:45:49;5.60;99.90
52765;DHT22;38650;44.536;18.664;2022-12-29T05:48:15;5.70;99.90
52765;DHT22;38650;44.536;18.664;2022-12-29T05:50:41;5.70;99.90
52765;DHT22;38650;44.536;18.664;2022-12-29T05:53:06;5.70;99.90
52765;DHT22;38650;44.536;18.664;2022-12-29T05:55:32;5.60;99.90
52765;DHT22;38650;44.536;18.664;2022-12-29T05:57:58;5.70;99.90
52765;DHT22;38650;44.536;18.664;2022-12-29T06:00:24;5.70;99.90
52765;DHT22;38650;44.536;18.664;2022-12-29T06:02:50;5.60;99.90
52765;DHT22;38650;44.536;18.664;2022-12-29T06:05:15;5.50;99.90
52765;DHT22;38650;44.536;18.664;2022-12-29T06:07:41;5.60;99.90
52765;DHT22;38650;44.536;18.664;2022-12-29T06:10:07;5.50;99.90
52765;DHT22;38650;44.536;18.664;2022-12-29T06:12:33;5.50;99.90
52765;DHT22;38650;44.536;18.664;2022-12-29T06:14:59;5.50;99.90
52765;DHT22;38650;44.536;18.664;2022-12-29T06:17:25;5.60;99.90
52765;DHT22;38650;44.536;18.664;2022-12-29T06:19:51;5.70;99.90
52765;DHT22;38650;44.536;18.664;2022-12-29T06:22:17;5.60;99.90
52765;DHT22;38650;44.536;18.664;2022-12-29T06:24:42;5.40;99.90
52765;DHT22;38650;44.536;18.664;2022-12-29T06:27:08;5.40;99.90
52765;DHT22;38650;44.536;18.664;2022-12-29T06:29:34;5.50;99.90
52765;DHT22;38650;44.536;18.664;2022-12-29T06:32:01;5.60;99.90
52765;DHT22;38650;44.536;18.664;2022-12-29T06:34:27;5.70;99.90
52765;DHT22;38650;44.536;18.664;2022-12-29T06:36:53;5.80;99.90
52765;DHT22;38650;44.536;18.664;2022-12-29T06:39:18;5.90;99.90
52765;DHT22;38650;44.536;18.664;2022-12-29T06:41:44;5.90;99.90
52765;DHT22;38650;44.536;18.664;2022-12-29T06:44:10;6.10;99.90
52765;DHT22;38650;44.536;18.664;2022-12-29T06:46:35;6.10;99.90
52765;DHT22;38650;44.536;18.664;2022-12-29T06:49:02;6.10;99.90
52765;DHT22;38650;44.536;18.664;2022-12-29T06:51:27;6.10;99.90
52765;DHT22;38650;44.536;18.664;2022-12-29T06:53:53;6.10;99.90
52765;DHT22;38650;44.536;18.664;2022-12-29T06:56:19;6.00;99.90
52765;DHT22;38650;44.536;18.664;2022-12-29T06:58:45;6.00;99.90
52765;DHT22;38650;44.536;18.664;2022-12-29T07:01:11;5.90;99.90
52765;DHT22;38650;44.536;18.664;2022-12-29T07:03:37;5.80;99.90
52765;DHT22;38650;44.536;18.664;2022-12-29T07:06:03;5.90;99.90
52765;DHT22;38650;44.536;18.664;2022-12-29T07:08:29;5.90;99.90
52765;DHT22;38650;44.536;18.664;2022-12-29T07:10:55;5.90;99.90
52765;DHT22;38650;44.536;18.664;2022-12-29T07:13:20;5.90;99.90
52765;DHT22;38650;44.536;18.664;2022-12-29T07:15:46;5.90;99.90
52765;DHT22;38650;44.536;18.664;2022-12-29T07:18:12;5.90;99.90
52765;DHT22;38650;44.536;18.664;2022-12-29T07:20:37;5.80;99.90
52765;DHT22;38650;44.536;18.664;2022-12-29T07:23:03;5.80;99.90
52765;DHT22;38650;44.536;18.664;2022-12-29T07:25:29;5.80;99.90
52765;DHT22;38650;44.536;18.664;2022-12-29T07:27:55;5.80;99.90
52765;DHT22;38650;44.536;18.664;2022-12-29T07:30:20;5.90;99.90
52765;DHT22;38650;44.536;18.664;2022-12-29T07:32:46;5.80;99.90
52765;DHT22;38650;44.536;18.664;2022-12-29T07:35:12;5.90;99.90
52765;DHT22;38650;44.536;18.664;2022-12-29T07:37:37;6.00;99.90
52765;DHT22;38650;44.536;18.664;2022-12-29T07:40:04;6.20;99.90
52765;DHT22;38650;44.536;18.664;2022-12-29T07:42:31;6.20;99.90
52765;DHT22;38650;44.536;18.664;2022-12-29T07:44:56;6.20;99.90
52765;DHT22;38650;44.536;18.664;2022-12-29T07:47:22;6.40;99.90
52765;DHT22;38650;44.536;18.664;2022-12-29T07:49:48;6.40;99.90
52765;DHT22;38650;44.536;18.664;2022-12-29T07:52:14;6.50;99.90
52765;DHT22;38650;44.536;18.664;2022-12-29T07:54:39;6.60;99.90
52765;DHT22;38650;44.536;18.664;2022-12-29T07:57:06;6.90;99.90
52765;DHT22;38650;44.536;18.664;2022-12-29T07:59:32;7.60;99.90
52765;DHT22;38650;44.536;18.664;2022-12-29T08:01:59;8.40;99.90
52765;DHT22;38650;44.536;18.664;2022-12-29T08:04:25;8.70;99.90
52765;DHT22;38650;44.536;18.664;2022-12-29T08:06:51;9.00;99.90
52765;DHT22;38650;44.536;18.664;2022-12-29T08:09:17;9.80;99.90
52765;DHT22;38650;44.536;18.664;2022-12-29T08:11:43;10.40;99.90
52765;DHT22;38650;44.536;18.664;2022-12-29T08:14:10;10.40;99.90
52765;DHT22;38650;44.536;18.664;2022-12-29T08:16:36;10.30;99.90
52765;DHT22;38650;44.536;18.664;2022-12-29T08:19:02;9.90;99.90
52765;DHT22;38650;44.536;18.664;2022-12-29T08:21:30;10.00;99.90
52765;DHT22;38650;44.536;18.664;2022-12-29T08:23:56;10.30;99.90
52765;DHT22;38650;44.536;18.664;2022-12-29T08:26:22;10.50;99.90
52765;DHT22;38650;44.536;18.664;2022-12-29T08:28:48;11.70;99.90
52765;DHT22;38650;44.536;18.664;2022-12-29T08:31:14;12.50;99.90
52765;DHT22;38650;44.536;18.664;2022-12-29T08:33:39;11.90;99.90
52765;DHT22;38650;44.536;18.664;2022-12-29T08:36:06;12.00;99.90
52765;DHT22;38650;44.536;18.664;2022-12-29T08:38:33;12.30;99.90
52765;DHT22;38650;44.536;18.664;2022-12-29T08:40:59;12.20;99.90
52765;DHT22;38650;44.536;18.664;2022-12-29T08:43:26;11.70;99.90
52765;DHT22;38650;44.536;18.664;2022-12-29T08:45:52;11.40;99.90
52765;DHT22;38650;44.536;18.664;2022-12-29T08:48:18;11.30;99.90
52765;DHT22;38650;44.536;18.664;2022-12-29T08:50:46;11.10;99.90
52765;DHT22;38650;44.536;18.664;2022-12-29T08:53:13;10.60;99.90
52765;DHT22;38650;44.536;18.664;2022-12-29T08:55:44;10.30;99.90
52765;DHT22;38650;44.536;18.664;2022-12-29T08:58:10;10.30;99.90
52765;DHT22;38650;44.536;18.664;2022-12-29T09:00:42;10.40;99.90
52765;DHT22;38650;44.536;18.664;2022-12-29T09:03:08;10.60;99.90
52765;DHT22;38650;44.536;18.664;2022-12-29T09:05:34;10.80;99.90
52765;DHT22;38650;44.536;18.664;2022-12-29T09:07:59;11.00;99.90
52765;DHT22;38650;44.536;18.664;2022-12-29T09:10:25;11.10;99.90
52765;DHT22;38650;44.536;18.664;2022-12-29T09:12:51;11.00;99.90
52765;DHT22;38650;44.536;18.664;2022-12-29T09:15:16;10.90;99.90
52765;DHT22;38650;44.536;18.664;2022-12-29T09:17:42;10.90;99.90
52765;DHT22;38650;44.536;18.664;2022-12-29T09:20:17;11.00;99.90
52765;DHT22;38650;44.536;18.664;2022-12-29T09:22:43;11.10;99.90
52765;DHT22;38650;44.536;18.664;2022-12-29T09:25:10;11.00;99.90
52765;DHT22;38650;44.536;18.664;2022-12-29T09:27:36;11.00;99.90
52765;DHT22;38650;44.536;18.664;2022-12-29T09:30:08;10.90;99.90
52765;DHT22;38650;44.536;18.664;2022-12-29T09:32:35;10.80;99.90
52765;DHT22;38650;44.536;18.664;2022-12-29T09:35:01;10.80;99.90
52765;DHT22;38650;44.536;18.664;2022-12-29T09:37:26;10.70;99.90
52765;DHT22;38650;44.536;18.664;2022-12-29T09:39:52;10.50;99.90
52765;DHT22;38650;44.536;18.664;2022-12-29T09:42:38;10.60;99.90
52765;DHT22;38650;44.536;18.664;2022-12-29T09:47:42;10.60;99.90
52765;DHT22;38650;44.536;18.664;2022-12-29T09:50:41;10.70;99.90
52765;DHT22;38650;44.536;18.664;2022-12-29T09:53:24;11.30;99.90
52765;DHT22;38650;44.536;18.664;2022-12-29T09:55:57;12.00;99.90
52765;DHT22;38650;44.536;18.664;2022-12-29T10:01:36;12.80;99.90
52765;DHT22;38650;44.536;18.664;2022-12-29T10:04:07;13.20;99.90
52765;DHT22;38650;44.536;18.664;2022-12-29T10:07:36;13.60;99.90
52765;DHT22;38650;44.536;18.664;2022-12-29T10:12:58;14.30;97.60
52765;DHT22;38650;44.536;18.664;2022-12-29T10:18:37;15.00;94.80
52765;DHT22;38650;44.536;18.664;2022-12-29T10:24:06;15.40;89.90
52765;DHT22;38650;44.536;18.664;2022-12-29T10:26:40;15.50;84.30
52765;DHT22;38650;44.536;18.664;2022-12-29T10:29:14;15.40;86.40
52765;DHT22;38650;44.536;18.664;2022-12-29T10:31:46;15.30;78.50
52765;DHT22;38650;44.536;18.664;2022-12-29T10:34:25;15.40;84.50
52765;DHT22;38650;44.536;18.664;2022-12-29T10:37:00;15.40;90.30
52765;DHT22;38650;44.536;18.664;2022-12-29T10:39:50;15.40;83.50
52765;DHT22;38650;44.536;18.664;2022-12-29T10:44:59;15.30;90.70
52765;DHT22;38650;44.536;18.664;2022-12-29T10:47:28;15.20;85.30
52765;DHT22;38650;44.536;18.664;2022-12-29T10:49:55;15.30;91.00
52765;DHT22;38650;44.536;18.664;2022-12-29T10:52:25;15.30;95.30
52765;DHT22;38650;44.536;18.664;2022-12-29T10:55:04;15.40;95.80
52765;DHT22;38650;44.536;18.664;2022-12-29T10:57:36;15.40;96.80
52765;DHT22;38650;44.536;18.664;2022-12-29T11:00:14;15.50;97.40
52765;DHT22;38650;44.536;18.664;2022-12-29T11:05:24;15.70;98.50
52765;DHT22;38650;44.536;18.664;2022-12-29T11:08:00;16.10;99.90
52765;DHT22;38650;44.536;18.664;2022-12-29T11:13:10;17.10;84.80
52765;DHT22;38650;44.536;18.664;2022-12-29T11:15:46;17.60;90.40
52765;DHT22;38650;44.536;18.664;2022-12-29T11:20:47;18.30;71.40
52765;DHT22;38650;44.536;18.664;2022-12-29T11:23:32;18.80;60.80
52765;DHT22;38650;44.536;18.664;2022-12-29T11:26:22;18.80;56.40
52765;DHT22;38650;44.536;18.664;2022-12-29T11:31:44;18.80;54.80
52765;DHT22;38650;44.536;18.664;2022-12-29T11:34:35;18.90;55.10
52765;DHT22;38650;44.536;18.664;2022-12-29T11:37:12;19.10;55.60
52765;DHT22;38650;44.536;18.664;2022-12-29T11:42:17;19.10;53.30
52765;DHT22;38650;44.536;18.664;2022-12-29T11:44:48;19.00;52.50
52765;DHT22;38650;44.536;18.664;2022-12-29T11:47:31;18.90;53.70
52765;DHT22;38650;44.536;18.664;2022-12-29T11:50:04;18.90;53.40
52765;DHT22;38650;44.536;18.664;2022-12-29T11:52:33;18.70;52.80
52765;DHT22;38650;44.536;18.664;2022-12-29T11:55:03;18.50;53.80
52765;DHT22;38650;44.536;18.664;2022-12-29T11:57:34;18.40;55.10
52765;DHT22;38650;44.536;18.664;2022-12-29T12:00:12;18.30;57.40
52765;DHT22;38650;44.536;18.664;2022-12-29T12:02:48;18.20;55.90
52765;DHT22;38650;44.536;18.664;2022-12-29T12:07:52;18.30;58.00
52765;DHT22;38650;44.536;18.664;2022-12-29T12:10:24;18.40;58.40
52765;DHT22;38650;44.536;18.664;2022-12-29T12:12:56;18.40;59.10
52765;DHT22;38650;44.536;18.664;2022-12-29T12:15:46;18.40;56.60
52765;DHT22;38650;44.536;18.664;2022-12-29T12:26:21;18.10;57.30
52765;DHT22;38650;44.536;18.664;2022-12-29T12:29:46;18.00;57.10
52765;DHT22;38650;44.536;18.664;2022-12-29T12:32:01;17.90;58.40
52765;DHT22;38650;44.536;18.664;2022-12-29T12:34:37;17.70;68.40
52765;DHT22;38650;44.536;18.664;2022-12-29T12:42:57;17.50;96.70
52765;DHT22;38650;44.536;18.664;2022-12-29T12:48:29;17.30;74.10
52765;DHT22;38650;44.536;18.664;2022-12-29T12:54:21;17.10;90.90
52765;DHT22;38650;44.536;18.664;2022-12-29T13:07:55;16.70;99.90
52765;DHT22;38650;44.536;18.664;2022-12-29T13:10:56;16.70;99.90
52765;DHT22;38650;44.536;18.664;2022-12-29T13:17:08;16.40;99.90
52765;DHT22;38650;44.536;18.664;2022-12-29T13:25:25;16.20;99.90
52765;DHT22;38650;44.536;18.664;2022-12-29T13:28:17;16.20;99.90
52765;DHT22;38650;44.536;18.664;2022-12-29T13:31:04;16.20;99.90
52765;DHT22;38650;44.536;18.664;2022-12-29T13:34:42;16.20;99.90
52765;DHT22;38650;44.536;18.664;2022-12-29T13:36:44;16.30;99.90
52765;DHT22;38650;44.536;18.664;2022-12-29T13:41:54;16.30;99.90
52765;DHT22;38650;44.536;18.664;2022-12-29T13:46:54;16.40;99.90
52765;DHT22;38650;44.536;18.664;2022-12-29T13:49:23;16.40;99.90
52765;DHT22;38650;44.536;18.664;2022-12-29T13:51:57;16.40;99.90
52765;DHT22;38650;44.536;18.664;2022-12-29T13:55:25;16.60;99.90
52765;DHT22;38650;44.536;18.664;2022-12-29T14:00:18;16.60;99.90
52765;DHT22;38650;44.536;18.664;2022-12-29T14:07:44;16.20;99.90
52765;DHT22;38650;44.536;18.664;2022-12-29T14:13:18;15.70;99.90
52765;DHT22;38650;44.536;18.664;2022-12-29T14:15:51;15.40;99.90
52765;DHT22;38650;44.536;18.664;2022-12-29T14:18:23;15.30;99.90
52765;DHT22;38650;44.536;18.664;2022-12-29T14:21:03;15.30;99.90
52765;DHT22;38650;44.536;18.664;2022-12-29T14:23:42;15.20;99.90
52765;DHT22;38650;44.536;18.664;2022-12-29T14:26:15;15.10;99.90
52765;DHT22;38650;44.536;18.664;2022-12-29T14:28:46;15.00;99.90
52765;DHT22;38650;44.536;18.664;2022-12-29T14:36:39;14.40;99.90
52765;DHT22;38650;44.536;18.664;2022-12-29T14:44:48;14.10;99.90
52765;DHT22;38650;44.536;18.664;2022-12-29T14:47:20;13.80;99.90
52765;DHT22;38650;44.536;18.664;2022-12-29T14:49:48;13.70;99.90
52765;DHT22;38650;44.536;18.664;2022-12-29T14:52:23;13.70;99.90
52765;DHT22;38650;44.536;18.664;2022-12-29T14:57:49;13.70;99.90
52765;DHT22;38650;44.536;18.664;2022-12-29T15:00:22;13.80;99.90
52765;DHT22;38650;44.536;18.664;2022-12-29T15:08:09;13.70;99.90
52765;DHT22;38650;44.536;18.664;2022-12-29T15:13:32;13.60;99.90
52765;DHT22;38650;44.536;18.664;2022-12-29T15:15:58;13.50;99.90
52765;DHT22;38650;44.536;18.664;2022-12-29T15:18:30;13.60;99.90
52765;DHT22;38650;44.536;18.664;2022-12-29T15:21:02;13.40;99.90
52765;DHT22;38650;44.536;18.664;2022-12-29T15:23:31;13.30;99.90
52765;DHT22;38650;44.536;18.664;2022-12-29T15:26:02;13.20;99.90
52765;DHT22;38650;44.536;18.664;2022-12-29T15:28:40;13.20;99.90
52765;DHT22;38650;44.536;18.664;2022-12-29T15:33:42;13.20;99.90
52765;DHT22;38650;44.536;18.664;2022-12-29T15:36:16;13.10;99.90
52765;DHT22;38650;44.536;18.664;2022-12-29T15:38:44;13.00;99.90
52765;DHT22;38650;44.536;18.664;2022-12-29T15:44:23;13.00;99.90
52765;DHT22;38650;44.536;18.664;2022-12-29T15:46:50;12.90;99.90
52765;DHT22;38650;44.536;18.664;2022-12-29T15:49:16;12.70;99.90
52765;DHT22;38650;44.536;18.664;2022-12-29T15:51:42;12.60;99.90
52765;DHT22;38650;44.536;18.664;2022-12-29T15:54:20;12.60;99.90
52765;DHT22;38650;44.536;18.664;2022-12-29T15:56:47;12.50;99.90
52765;DHT22;38650;44.536;18.664;2022-12-29T15:59:31;12.50;99.90
52765;DHT22;38650;44.536;18.664;2022-12-29T16:01:59;12.70;99.90
52765;DHT22;38650;44.536;18.664;2022-12-29T16:04:29;12.60;99.90
52765;DHT22;38650;44.536;18.664;2022-12-29T16:07:04;12.50;99.90
52765;DHT22;38650;44.536;18.664;2022-12-29T16:09:35;12.60;99.90
52765;DHT22;38650;44.536;18.664;2022-12-29T16:12:06;12.60;99.90
52765;DHT22;38650;44.536;18.664;2022-12-29T16:14:44;12.50;99.90
52765;DHT22;38650;44.536;18.664;2022-12-29T16:17:14;12.50;99.90
52765;DHT22;38650;44.536;18.664;2022-12-29T16:19:42;12.50;99.90
52765;DHT22;38650;44.536;18.664;2022-12-29T16:22:32;12.30;99.90
52765;DHT22;38650;44.536;18.664;2022-12-29T16:25:02;12.00;99.90
52765;DHT22;38650;44.536;18.664;2022-12-29T16:27:31;11.90;99.90
52765;DHT22;38650;44.536;18.664;2022-12-29T16:29:58;11.90;99.90
52765;DHT22;38650;44.536;18.664;2022-12-29T16:32:31;12.10;99.90
52765;DHT22;38650;44.536;18.664;2022-12-29T16:37:36;11.80;99.90
52765;DHT22;38650;44.536;18.664;2022-12-29T16:42:48;11.50;99.90
52765;DHT22;38650;44.536;18.664;2022-12-29T16:49:09;11.50;99.90
52765;DHT22;38650;44.536;18.664;2022-12-29T16:51:09;11.60;99.90
52765;DHT22;38650;44.536;18.664;2022-12-29T16:53:40;11.50;99.90
52765;DHT22;38650;44.536;18.664;2022-12-29T16:56:19;11.60;99.90
52765;DHT22;38650;44.536;18.664;2022-12-29T16:58:50;11.60;99.90
52765;DHT22;38650;44.536;18.664;2022-12-29T17:01:17;11.60;99.90
52765;DHT22;38650;44.536;18.664;2022-12-29T17:03:52;11.70;99.90
52765;DHT22;38650;44.536;18.664;2022-12-29T17:06:21;11.70;99.90
52765;DHT22;38650;44.536;18.664;2022-12-29T17:08:47;11.70;99.90
52765;DHT22;38650;44.536;18.664;2022-12-29T17:11:24;11.80;99.90
52765;DHT22;38650;44.536;18.664;2022-12-29T17:16:53;11.80;99.90
52765;DHT22;38650;44.536;18.664;2022-12-29T17:19:32;11.80;99.90
52765;DHT22;38650;44.536;18.664;2022-12-29T17:21:58;11.80;99.90
52765;DHT22;38650;44.536;18.664;2022-12-29T17:24:24;11.70;99.90
52765;DHT22;38650;44.536;18.664;2022-12-29T17:26:53;11.60;99.90
52765;DHT22;38650;44.536;18.664;2022-12-29T17:31:52;11.60;99.90
52765;DHT22;38650;44.536;18.664;2022-12-29T17:34:19;11.70;99.90
52765;DHT22;38650;44.536;18.664;2022-12-29T17:36:45;11.70;99.90
52765;DHT22;38650;44.536;18.664;2022-12-29T17:39:10;11.70;99.90
52765;DHT22;38650;44.536;18.664;2022-12-29T17:41:36;11.80;99.90
52765;DHT22;38650;44.536;18.664;2022-12-29T17:44:04;11.90;99.90
52765;DHT22;38650;44.536;18.664;2022-12-29T17:46:30;11.90;99.90
52765;DHT22;38650;44.536;18.664;2022-12-29T17:48:56;12.00;99.90
52765;DHT22;38650;44.536;18.664;2022-12-29T17:51:22;12.00;99.90
52765;DHT22;38650;44.536;18.664;2022-12-29T17:53:48;12.00;99.90
52765;DHT22;38650;44.536;18.664;2022-12-29T17:56:16;12.00;99.90
52765;DHT22;38650;44.536;18.664;2022-12-29T17:58:42;11.90;99.90
52765;DHT22;38650;44.536;18.664;2022-12-29T18:01:09;12.00;99.90
52765;DHT22;38650;44.536;18.664;2022-12-29T18:03:38;11.90;99.90
52765;DHT22;38650;44.536;18.664;2022-12-29T18:06:04;11.80;99.90
52765;DHT22;38650;44.536;18.664;2022-12-29T18:08:34;11.70;99.90
52765;DHT22;38650;44.536;18.664;2022-12-29T18:11:00;11.70;99.90
52765;DHT22;38650;44.536;18.664;2022-12-29T18:13:28;11.70;99.90
52765;DHT22;38650;44.536;18.664;2022-12-29T18:15:55;11.70;99.90
52765;DHT22;38650;44.536;18.664;2022-12-29T18:18:24;11.70;99.90
52765;DHT22;38650;44.536;18.664;2022-12-29T18:20:53;11.70;99.90
52765;DHT22;38650;44.536;18.664;2022-12-29T18:26:11;11.40;99.90
52765;DHT22;38650;44.536;18.664;2022-12-29T18:28:39;11.30;99.90
52765;DHT22;38650;44.536;18.664;2022-12-29T18:31:32;11.20;99.90
52765;DHT22;38650;44.536;18.664;2022-12-29T18:34:00;11.30;99.90